Time;durP1;ratioP1;P1;durP2;ratioP2;P2;SDS_P1;SDS_P2;PMS_P1;PMS_P2;Temp;Humidity;BMP_temperature;BMP_pressure;BME280_temperature;BME280_humidity;BME280_pressure;Samples;Min_cycle;Max_cycle;Signal;HPM_P1;HPM_P2
2022/09/30 00:01:24;;;;;;;3.42;2.58;;;7.70;99.90;;;;;;5073976;28;20040;-65
2022/09/30 00:03:50;;;;;;;3.63;2.90;;;7.70;99.90;;;;;;5074652;28;20090;-66
2022/09/30 00:06:16;;;;;;;3.35;3.03;;;7.70;99.90;;;;;;5073865;28;20048;-66
2022/09/30 00:08:42;;;;;;;3.22;2.50;;;7.80;99.90;;;;;;5073968;28;20055;-65
2022/09/30 00:11:17;;;;;;;4.13;3.70;;;7.70;99.90;;;;;;5073422;28;20048;-65
2022/09/30 00:13:45;;;;;;;5.50;3.65;;;7.80;99.90;;;;;;5073855;28;20519;-65
2022/09/30 00:16:12;;;;;;;5.20;4.70;;;7.70;99.90;;;;;;5073577;28;20523;-65
2022/09/30 00:18:39;;;;;;;4.50;3.97;;;7.80;99.90;;;;;;5073781;28;20044;-65
2022/09/30 00:21:07;;;;;;;4.38;3.80;;;7.70;99.90;;;;;;5073623;28;20040;-66
2022/09/30 00:23:33;;;;;;;4.97;4.20;;;7.70;99.90;;;;;;5074504;28;20486;-65
2022/09/30 00:26:04;;;;;;;5.05;4.35;;;7.70;99.90;;;;;;5073370;28;20040;-65
2022/09/30 00:28:30;;;;;;;5.95;4.90;;;7.70;99.90;;;;;;5073643;28;20078;-65
2022/09/30 00:31:00;;;;;;;4.63;4.07;;;7.80;99.90;;;;;;5074090;28;20078;-65
2022/09/30 00:33:27;;;;;;;4.88;4.22;;;7.90;99.90;;;;;;5073229;28;20119;-66
2022/09/30 00:35:53;;;;;;;5.28;4.25;;;7.90;99.90;;;;;;5073657;28;20170;-65
2022/09/30 00:38:18;;;;;;;4.63;3.90;;;7.90;99.90;;;;;;5073467;28;20041;-66
2022/09/30 00:40:45;;;;;;;5.00;4.50;;;7.90;99.90;;;;;;5073349;28;20049;-66
2022/09/30 00:43:19;;;;;;;5.35;4.85;;;7.90;99.90;;;;;;5073859;28;20366;-66
2022/09/30 00:45:56;;;;;;;5.18;4.68;;;8.00;99.90;;;;;;5073442;28;20137;-66
2022/09/30 00:48:32;;;;;;;5.55;4.90;;;8.10;99.90;;;;;;5073335;28;20079;-65
2022/09/30 00:51:00;;;;;;;5.45;4.78;;;8.00;99.90;;;;;;5073367;28;20044;-65
2022/09/30 00:53:32;;;;;;;5.55;5.00;;;7.90;99.90;;;;;;5073325;28;20600;-65
2022/09/30 00:56:03;;;;;;;5.80;5.20;;;7.80;99.90;;;;;;5073331;28;20099;-65
2022/09/30 00:58:29;;;;;;;7.05;6.13;;;7.80;99.90;;;;;;5073836;28;20045;-66
2022/09/30 01:00:58;;;;;;;6.15;5.22;;;7.80;99.90;;;;;;5072988;28;20394;-65
2022/09/30 01:03:24;;;;;;;5.72;5.13;;;7.80;99.90;;;;;;5073194;28;20056;-65
2022/09/30 01:05:51;;;;;;;5.10;4.60;;;7.70;99.90;;;;;;5073639;28;20045;-66
2022/09/30 01:08:19;;;;;;;5.95;5.35;;;7.60;99.90;;;;;;5073712;28;20095;-65
2022/09/30 01:10:45;;;;;;;6.10;5.50;;;7.60;99.90;;;;;;5073127;28;20043;-65
2022/09/30 01:13:13;;;;;;;6.38;5.68;;;7.70;99.90;;;;;;5074263;28;20052;-66
2022/09/30 01:15:45;;;;;;;5.05;4.55;;;7.70;99.90;;;;;;5073302;28;20454;-66
2022/09/30 01:18:42;;;;;;;5.72;5.10;;;7.70;99.90;;;;;;5055677;28;20052;-65
2022/09/30 01:21:35;;;;;;;5.65;4.90;;;7.70;99.90;;;;;;5073519;28;20044;-66
2022/09/30 01:24:48;;;;;;;5.25;4.75;;;7.70;99.90;;;;;;5073095;28;20067;-66
2022/09/30 01:27:34;;;;;;;5.90;5.30;;;7.70;99.90;;;;;;5069482;28;20138;-66
2022/09/30 01:30:00;;;;;;;6.45;5.03;;;7.70;99.90;;;;;;5073189;28;20474;-66
2022/09/30 01:32:44;;;;;;;4.97;4.45;;;7.70;99.90;;;;;;5072901;28;20059;-65
2022/09/30 01:35:31;;;;;;;5.60;4.40;;;7.70;99.90;;;;;;5072828;28;20382;-66
2022/09/30 01:38:11;;;;;;;6.93;4.70;;;7.70;99.90;;;;;;5073674;28;20048;-66
2022/09/30 01:40:43;;;;;;;5.05;4.50;;;7.80;99.90;;;;;;5072795;28;20550;-66
2022/09/30 01:43:53;;;;;;;6.93;4.90;;;7.70;99.90;;;;;;5072932;28;20044;-66
2022/09/30 01:46:28;;;;;;;6.63;5.50;;;7.70;99.90;;;;;;5067039;28;20056;-65
2022/09/30 01:49:02;;;;;;;5.70;5.13;;;7.80;99.90;;;;;;5072800;28;20052;-65
2022/09/30 01:51:39;;;;;;;5.18;4.68;;;7.80;99.90;;;;;;5072727;28;20048;-66
2022/09/30 01:54:31;;;;;;;5.80;5.18;;;7.80;99.90;;;;;;5072861;28;20060;-65
2022/09/30 01:57:31;;;;;;;6.10;4.95;;;7.80;99.90;;;;;;5073305;28;20055;-65
2022/09/30 02:00:06;;;;;;;5.22;4.72;;;7.70;99.90;;;;;;5056144;28;20052;-65
2022/09/30 02:02:35;;;;;;;5.18;4.68;;;7.70;99.90;;;;;;5072661;28;20059;-65
2022/09/30 02:05:07;;;;;;;11.60;5.78;;;7.50;99.90;;;;;;5073073;28;20041;-64
2022/09/30 02:07:46;;;;;;;8.30;5.40;;;7.40;99.90;;;;;;5072592;28;20401;-65
2022/09/30 02:10:18;;;;;;;7.05;5.43;;;7.40;99.90;;;;;;5071503;28;20044;-65
2022/09/30 02:12:56;;;;;;;6.68;5.90;;;7.20;99.90;;;;;;5072251;28;20129;-65
2022/09/30 02:15:29;;;;;;;5.93;5.32;;;7.10;99.90;;;;;;5076157;28;20135;-65
2022/09/30 02:18:01;;;;;;;7.45;5.93;;;7.20;99.90;;;;;;5076117;28;20124;-65
2022/09/30 02:20:31;;;;;;;6.10;5.50;;;6.90;99.90;;;;;;5076515;28;20417;-65
2022/09/30 02:23:06;;;;;;;6.85;5.50;;;6.90;99.90;;;;;;5076560;28;20041;-65
2022/09/30 02:25:37;;;;;;;5.93;5.38;;;6.80;99.90;;;;;;5075925;28;20138;-65
2022/09/30 02:28:07;;;;;;;6.25;5.57;;;6.80;99.90;;;;;;5076471;28;20040;-65
2022/09/30 02:30:36;;;;;;;5.90;5.03;;;6.80;99.90;;;;;;5074700;28;20048;-65
2022/09/30 02:33:07;;;;;;;8.60;4.80;;;6.80;99.90;;;;;;5075808;28;20045;-65
2022/09/30 02:35:58;;;;;;;7.63;5.75;;;6.70;99.90;;;;;;5076508;28;20059;-66
2022/09/30 02:38:36;;;;;;;7.78;6.35;;;6.80;99.90;;;;;;5075783;28;20044;-66
2022/09/30 02:41:14;;;;;;;7.05;6.35;;;6.80;99.90;;;;;;5076437;28;20366;-66
2022/09/30 02:43:41;;;;;;;8.18;6.45;;;7.00;99.90;;;;;;5076454;28;20070;-66
2022/09/30 02:46:37;;;;;;;8.45;7.10;;;7.20;99.90;;;;;;5075562;28;20055;-66
2022/09/30 02:49:20;;;;;;;7.68;6.88;;;7.10;99.90;;;;;;5075575;28;20524;-66
2022/09/30 02:52:11;;;;;;;7.22;6.53;;;7.20;99.90;;;;;;5075516;28;20086;-67
2022/09/30 02:55:05;;;;;;;8.10;5.97;;;7.40;99.90;;;;;;5074767;28;20088;-66
2022/09/30 02:57:37;;;;;;;6.30;5.70;;;7.20;99.90;;;;;;5075412;28;20131;-65
2022/09/30 03:00:05;;;;;;;7.28;6.50;;;7.10;99.90;;;;;;5074762;28;20370;-66
2022/09/30 03:02:30;;;;;;;6.30;5.65;;;7.00;99.90;;;;;;5075246;28;20062;-66
2022/09/30 03:04:56;;;;;;;6.72;6.13;;;7.00;99.90;;;;;;5075612;28;20127;-65
2022/09/30 03:07:22;;;;;;;6.47;5.75;;;7.00;99.90;;;;;;5075284;28;20090;-66
2022/09/30 03:09:47;;;;;;;6.75;6.05;;;6.90;99.90;;;;;;5074988;28;20044;-66
2022/09/30 03:12:27;;;;;;;7.47;5.60;;;6.80;99.90;;;;;;5073607;28;20099;-65
2022/09/30 03:15:01;;;;;;;7.97;5.60;;;6.80;99.90;;;;;;5074941;28;20462;-65
2022/09/30 03:18:18;;;;;;;7.15;6.10;;;6.80;99.90;;;;;;5075438;28;20441;-66
2022/09/30 03:21:06;;;;;;;6.72;5.82;;;6.70;99.90;;;;;;5032435;28;20053;-66
2022/09/30 03:23:49;;;;;;;8.43;7.03;;;6.80;99.90;;;;;;5033024;28;20532;-66
2022/09/30 03:26:41;;;;;;;7.82;7.03;;;6.80;99.90;;;;;;5063427;28;20102;-66
2022/09/30 03:29:12;;;;;;;7.47;6.35;;;6.90;99.90;;;;;;5075530;28;20071;-66
2022/09/30 03:32:05;;;;;;;7.47;6.45;;;6.90;99.90;;;;;;5074711;28;20526;-66
2022/09/30 03:34:42;;;;;;;7.82;6.28;;;6.90;99.90;;;;;;5074298;28;20440;-66
2022/09/30 03:37:37;;;;;;;10.20;8.18;;;7.00;99.90;;;;;;5075084;28;20381;-66
2022/09/30 03:40:17;;;;;;;9.35;7.55;;;7.10;99.90;;;;;;5059442;28;20408;-66
2022/09/30 03:42:46;;;;;;;8.85;6.80;;;7.20;99.90;;;;;;5075034;28;20037;-66
2022/09/30 03:45:34;;;;;;;8.55;6.60;;;7.30;99.90;;;;;;5074358;28;20044;-66
2022/09/30 03:48:05;;;;;;;7.03;5.95;;;7.30;99.90;;;;;;5075222;28;20049;-66
2022/09/30 03:50:34;;;;;;;7.13;5.97;;;7.30;99.90;;;;;;5074210;28;20041;-66
2022/09/30 03:53:00;;;;;;;6.22;5.18;;;7.20;99.90;;;;;;5074747;28;20054;-66
2022/09/30 03:55:27;;;;;;;6.63;5.65;;;7.10;99.90;;;;;;5074251;28;20044;-66
2022/09/30 03:57:53;;;;;;;8.25;5.68;;;7.10;99.90;;;;;;5074088;28;20048;-66
2022/09/30 04:00:19;;;;;;;15.02;6.03;;;7.20;99.90;;;;;;5074072;28;20048;-66
2022/09/30 04:02:45;;;;;;;19.48;6.32;;;7.00;99.90;;;;;;5074629;28;20045;-65
2022/09/30 04:05:11;;;;;;;8.48;5.70;;;6.90;99.90;;;;;;5074345;28;20381;-67
2022/09/30 04:07:37;;;;;;;40.13;8.85;;;6.90;99.90;;;;;;5074016;28;20050;-66
2022/09/30 04:10:03;;;;;;;28.23;7.93;;;6.90;99.90;;;;;;5073900;28;20041;-66
2022/09/30 04:12:29;;;;;;;19.90;7.00;;;6.80;99.90;;;;;;5072400;28;20091;-66
2022/09/30 04:14:54;;;;;;;22.85;6.65;;;6.80;99.90;;;;;;5073877;28;20126;-66
2022/09/30 04:17:20;;;;;;;42.53;8.10;;;6.90;99.90;;;;;;5073775;28;20493;-66
2022/09/30 04:19:46;;;;;;;108.88;12.93;;;6.80;99.90;;;;;;5073725;28;20048;-66
2022/09/30 04:22:12;;;;;;;62.03;8.48;;;6.70;99.90;;;;;;5073759;28;20444;-66
2022/09/30 04:24:38;;;;;;;61.03;8.27;;;6.60;99.90;;;;;;5073669;28;20044;-66
2022/09/30 04:27:04;;;;;;;87.68;10.82;;;6.60;99.90;;;;;;5073650;28;20458;-66
2022/09/30 04:29:30;;;;;;;85.93;10.38;;;6.50;99.90;;;;;;5073892;28;20044;-66
2022/09/30 04:31:56;;;;;;;101.10;12.93;;;6.50;99.90;;;;;;5073577;28;20492;-66
2022/09/30 04:34:21;;;;;;;18.55;4.75;;;6.40;99.90;;;;;;5073508;28;20059;-66
2022/09/30 04:36:47;;;;;;;63.08;9.50;;;6.40;99.90;;;;;;5072671;28;20044;-66
2022/09/30 04:39:13;;;;;;;11.65;4.90;;;6.50;99.90;;;;;;5073240;28;20128;-67
2022/09/30 04:41:39;;;;;;;61.10;8.23;;;6.40;99.90;;;;;;5073401;28;20127;-65
2022/09/30 04:44:05;;;;;;;69.10;9.48;;;6.30;99.90;;;;;;5073425;28;20090;-66
2022/09/30 04:46:35;;;;;;;42.13;7.13;;;6.30;99.90;;;;;;5073447;28;20441;-66
2022/09/30 04:49:05;;;;;;;65.85;8.88;;;6.40;99.90;;;;;;5073355;28;20110;-66
2022/09/30 04:51:31;;;;;;;17.92;4.65;;;6.30;99.90;;;;;;5073561;28;20040;-65
2022/09/30 04:53:57;;;;;;;33.15;5.95;;;6.30;99.90;;;;;;5073323;28;20366;-65
2022/09/30 04:56:23;;;;;;;24.65;5.80;;;6.30;99.90;;;;;;5073306;28;20048;-66
2022/09/30 04:58:50;;;;;;;21.75;5.20;;;6.30;99.90;;;;;;5074030;28;20170;-66
2022/09/30 05:01:17;;;;;;;17.95;4.75;;;6.30;99.90;;;;;;5073200;28;20099;-66
2022/09/30 05:03:43;;;;;;;46.10;7.53;;;6.30;99.90;;;;;;5073213;28;20053;-66
2022/09/30 05:06:09;;;;;;;50.65;7.90;;;6.20;99.90;;;;;;5073407;28;20137;-66
2022/09/30 05:08:36;;;;;;;17.45;5.18;;;6.10;99.90;;;;;;5073151;28;20063;-66
2022/09/30 05:11:07;;;;;;;6.63;5.60;;;6.20;99.90;;;;;;5072908;28;20036;-66
2022/09/30 05:13:35;;;;;;;7.97;5.55;;;6.10;99.90;;;;;;5073985;28;20057;-66
2022/09/30 05:16:02;;;;;;;10.13;5.25;;;6.20;99.90;;;;;;5073261;28;20490;-66
2022/09/30 05:18:28;;;;;;;10.13;4.90;;;6.20;99.90;;;;;;5073132;28;20037;-66
2022/09/30 05:20:58;;;;;;;7.32;5.53;;;6.30;99.90;;;;;;5073001;28;20037;-66
2022/09/30 05:23:26;;;;;;;6.97;5.90;;;6.30;99.90;;;;;;5073096;28;20098;-66
2022/09/30 05:25:52;;;;;;;7.88;5.75;;;6.30;99.90;;;;;;5073740;28;20376;-66
2022/09/30 05:28:18;;;;;;;5.93;5.32;;;6.30;99.90;;;;;;5072659;28;20044;-66
2022/09/30 05:30:44;;;;;;;5.95;5.15;;;6.20;99.90;;;;;;5073055;28;20040;-66
2022/09/30 05:33:11;;;;;;;7.45;6.05;;;6.30;99.90;;;;;;5071544;28;20048;-66
2022/09/30 05:35:40;;;;;;;8.80;6.15;;;6.30;99.90;;;;;;5072769;28;20048;-66
2022/09/30 05:38:06;;;;;;;7.82;6.40;;;6.30;99.90;;;;;;5072890;28;20052;-66
2022/09/30 05:40:32;;;;;;;7.22;5.88;;;6.30;99.90;;;;;;5072831;28;20045;-67
2022/09/30 05:42:58;;;;;;;7.63;6.25;;;6.30;99.90;;;;;;5072846;28;20052;-66
2022/09/30 05:45:25;;;;;;;7.35;6.25;;;6.30;99.90;;;;;;5073053;28;20044;-66
2022/09/30 05:47:54;;;;;;;7.78;6.53;;;6.40;99.90;;;;;;5073649;28;20052;-66
2022/09/30 05:50:21;;;;;;;7.15;6.22;;;6.30;99.90;;;;;;5076605;28;20044;-66
2022/09/30 05:52:48;;;;;;;8.38;5.45;;;6.40;99.90;;;;;;5076540;28;20048;-66
2022/09/30 05:55:15;;;;;;;6.30;5.07;;;6.50;99.90;;;;;;5075751;28;20098;-66
2022/09/30 05:57:42;;;;;;;6.90;5.10;;;6.40;99.90;;;;;;5076745;28;20570;-66
2022/09/30 06:00:08;;;;;;;6.85;5.53;;;6.50;99.90;;;;;;5076849;28;20054;-66
2022/09/30 06:02:37;;;;;;;7.45;6.13;;;6.40;99.90;;;;;;5077030;28;20088;-66
2022/09/30 06:05:04;;;;;;;7.00;6.30;;;6.50;99.90;;;;;;5076366;28;20036;-66
2022/09/30 06:07:29;;;;;;;7.38;5.97;;;6.50;99.90;;;;;;5076791;28;20048;-66
2022/09/30 06:09:55;;;;;;;8.73;7.00;;;6.60;99.90;;;;;;5075092;28;20051;-66
2022/09/30 06:12:21;;;;;;;6.93;6.00;;;6.70;99.90;;;;;;5076357;28;20106;-66
2022/09/30 06:14:46;;;;;;;7.80;6.25;;;6.70;99.90;;;;;;5076189;28;20136;-65
2022/09/30 06:17:12;;;;;;;7.00;6.30;;;6.70;99.90;;;;;;5076126;28;20049;-61
2022/09/30 06:19:38;;;;;;;8.25;6.65;;;6.80;99.90;;;;;;5076595;28;20052;-61
2022/09/30 06:22:03;;;;;;;6.82;5.75;;;6.80;99.90;;;;;;5075267;28;20385;-61
2022/09/30 06:24:29;;;;;;;7.72;6.57;;;6.90;99.90;;;;;;5075230;28;20071;-62
2022/09/30 06:26:55;;;;;;;7.30;6.03;;;6.80;99.90;;;;;;5076495;28;20386;-61
2022/09/30 06:29:21;;;;;;;7.20;6.45;;;6.90;99.90;;;;;;5075858;28;20063;-61
2022/09/30 06:31:47;;;;;;;7.38;6.28;;;6.90;99.90;;;;;;5075824;28;20036;-61
2022/09/30 06:34:12;;;;;;;8.05;6.93;;;7.00;99.90;;;;;;5074785;28;20046;-61
2022/09/30 06:36:38;;;;;;;8.23;6.45;;;7.10;99.90;;;;;;5075666;28;20052;-61
2022/09/30 06:39:04;;;;;;;7.60;5.60;;;7.20;99.90;;;;;;5076415;28;20481;-61
2022/09/30 06:41:30;;;;;;;7.55;6.20;;;7.30;99.90;;;;;;5075227;28;20501;-61
2022/09/30 06:43:56;;;;;;;6.82;5.82;;;7.30;99.90;;;;;;5075642;28;20115;-61
2022/09/30 06:46:23;;;;;;;7.45;5.93;;;7.30;99.90;;;;;;5075511;28;20049;-61
2022/09/30 06:48:52;;;;;;;6.45;5.15;;;7.40;99.90;;;;;;5075553;28;20048;-61
2022/09/30 06:51:19;;;;;;;7.00;4.97;;;7.50;99.90;;;;;;5075444;28;20091;-61
2022/09/30 06:53:49;;;;;;;6.07;4.82;;;7.60;99.90;;;;;;5075419;28;20041;-61
2022/09/30 06:56:16;;;;;;;6.22;4.80;;;7.70;99.90;;;;;;5075190;28;20048;-61
2022/09/30 06:58:44;;;;;;;5.63;4.85;;;7.90;99.90;;;;;;5074875;28;20123;-61
2022/09/30 07:01:13;;;;;;;5.93;5.00;;;7.90;99.90;;;;;;5075756;28;20052;-61
2022/09/30 07:03:44;;;;;;;6.85;5.53;;;8.00;99.90;;;;;;5074553;28;20055;-61
2022/09/30 07:06:12;;;;;;;5.80;5.13;;;8.10;99.90;;;;;;5075689;28;20044;-61
2022/09/30 07:08:39;;;;;;;6.20;4.93;;;8.10;99.90;;;;;;5075148;28;20051;-61
2022/09/30 07:11:11;;;;;;;6.53;4.85;;;8.20;99.90;;;;;;5075371;28;20370;-61
2022/09/30 07:13:38;;;;;;;6.68;4.45;;;8.30;99.90;;;;;;5075827;28;20084;-61
2022/09/30 07:16:04;;;;;;;5.97;5.00;;;8.40;99.90;;;;;;5075023;28;20098;-61
2022/09/30 07:18:30;;;;;;;5.47;4.68;;;8.50;99.90;;;;;;5075026;28;20087;-62
2022/09/30 07:20:56;;;;;;;5.45;4.72;;;8.60;99.90;;;;;;5057825;28;20076;-62
2022/09/30 07:23:24;;;;;;;5.18;4.50;;;8.60;99.90;;;;;;5074948;28;20123;-61
2022/09/30 07:25:53;;;;;;;6.50;4.97;;;8.70;99.90;;;;;;5074338;28;20078;-62
2022/09/30 07:28:19;;;;;;;5.97;4.72;;;8.80;99.90;;;;;;5075110;28;20044;-62
2022/09/30 07:30:44;;;;;;;5.95;4.90;;;8.90;99.90;;;;;;5074525;28;20393;-62
2022/09/30 07:33:15;;;;;;;5.53;4.63;;;9.00;99.90;;;;;;5073314;28;20211;-63
2022/09/30 07:35:49;;;;;;;5.75;4.93;;;9.10;99.90;;;;;;5074575;28;20045;-62
2022/09/30 07:38:16;;;;;;;6.25;5.00;;;9.20;99.90;;;;;;5074589;28;20086;-62
2022/09/30 07:40:49;;;;;;;7.32;5.43;;;9.30;99.90;;;;;;5074764;28;20041;-62
2022/09/30 07:43:17;;;;;;;6.18;4.97;;;9.50;99.90;;;;;;5074205;28;20088;-62
2022/09/30 07:45:43;;;;;;;6.47;5.20;;;9.50;99.90;;;;;;5057316;28;20067;-62
2022/09/30 07:48:38;;;;;;;6.63;5.70;;;9.60;99.90;;;;;;5074147;28;20135;-62
2022/09/30 07:50:55;;;;;;;7.10;5.38;;;9.70;99.90;;;;;;5074464;28;20045;-62
2022/09/30 07:53:21;;;;;;;6.60;5.18;;;9.70;99.90;;;;;;5074252;28;20048;-62
2022/09/30 07:55:46;;;;;;;7.45;6.00;;;9.80;99.90;;;;;;5073929;28;20082;-62
2022/09/30 07:58:12;;;;;;;7.40;6.60;;;9.80;99.90;;;;;;5074063;28;20179;-62
2022/09/30 08:00:38;;;;;;;8.52;5.95;;;9.90;99.90;;;;;;5073986;28;20040;-62
2022/09/30 08:03:03;;;;;;;7.43;5.90;;;10.00;99.90;;;;;;5074507;28;20070;-62
2022/09/30 08:05:29;;;;;;;7.75;5.97;;;10.00;99.90;;;;;;5073890;28;20052;-62
2022/09/30 08:07:55;;;;;;;8.27;6.13;;;10.10;99.90;;;;;;5073920;28;20128;-62
2022/09/30 08:10:20;;;;;;;7.72;6.13;;;10.20;99.90;;;;;;5073667;28;20044;-62
2022/09/30 08:12:46;;;;;;;7.38;6.07;;;10.30;99.90;;;;;;5073652;28;20067;-62
2022/09/30 08:15:12;;;;;;;8.23;6.55;;;10.40;99.90;;;;;;5073740;28;20063;-62
2022/09/30 08:17:37;;;;;;;7.97;6.13;;;10.50;99.90;;;;;;5073723;28;20212;-61
2022/09/30 08:20:03;;;;;;;7.55;6.13;;;10.60;99.90;;;;;;5072439;28;20050;-62
2022/09/30 08:22:29;;;;;;;9.18;6.80;;;10.80;99.90;;;;;;5073615;28;20056;-62
2022/09/30 08:24:55;;;;;;;7.95;5.82;;;10.90;99.90;;;;;;5073561;28;20131;-62
2022/09/30 08:27:20;;;;;;;7.28;5.72;;;11.00;99.90;;;;;;5072659;28;20076;-63
2022/09/30 08:29:46;;;;;;;7.53;5.78;;;11.00;99.90;;;;;;5074106;28;20052;-62
2022/09/30 08:32:12;;;;;;;7.78;5.97;;;11.10;99.90;;;;;;5072324;28;20051;-62
2022/09/30 08:34:37;;;;;;;7.38;6.13;;;11.20;99.90;;;;;;5074056;28;20044;-62
2022/09/30 08:37:04;;;;;;;7.22;6.05;;;11.30;99.90;;;;;;5072289;28;20044;-62
2022/09/30 08:39:29;;;;;;;7.65;5.97;;;11.40;99.90;;;;;;5073925;28;20052;-63
2022/09/30 08:42:18;;;;;;;8.00;6.15;;;11.50;99.90;;;;;;5073858;28;20416;-62
2022/09/30 08:44:46;;;;;;;7.70;5.85;;;11.60;99.90;;;;;;5073613;28;20094;-62
2022/09/30 08:47:38;;;;;;;7.13;5.40;;;11.70;99.90;;;;;;5073088;28;20123;-62
2022/09/30 08:50:26;;;;;;;7.30;4.97;;;11.80;99.90;;;;;;5073246;28;20482;-62
2022/09/30 08:52:57;;;;;;;6.45;5.55;;;11.90;99.90;;;;;;5073986;28;20044;-62
2022/09/30 08:55:25;;;;;;;6.18;5.32;;;12.00;99.90;;;;;;5073716;28;20059;-61
2022/09/30 08:57:54;;;;;;;6.43;5.03;;;12.10;99.90;;;;;;5073106;28;20090;-61
2022/09/30 09:00:21;;;;;;;6.50;5.45;;;12.20;99.90;;;;;;5072790;28;20056;-62
2022/09/30 09:02:51;;;;;;;5.35;4.47;;;12.30;99.90;;;;;;5073008;28;20048;-62
2022/09/30 09:05:30;;;;;;;6.75;5.38;;;12.40;99.90;;;;;;5073743;28;20127;-61
2022/09/30 09:08:01;;;;;;;5.95;5.10;;;12.50;99.90;;;;;;5073451;28;20044;-61
2022/09/30 09:10:53;;;;;;;5.72;4.72;;;12.60;99.90;;;;;;5072889;28;20491;-61
2022/09/30 09:13:48;;;;;;;4.97;4.35;;;12.70;99.90;;;;;;5072927;28;20059;-62
2022/09/30 09:16:34;;;;;;;4.95;4.00;;;12.90;99.90;;;;;;5073018;28;20141;-61
2022/09/30 09:19:07;;;;;;;4.13;3.65;;;13.00;99.90;;;;;;5072048;28;20084;-62
2022/09/30 09:21:51;;;;;;;5.22;4.00;;;13.10;99.90;;;;;;5073102;28;20378;-61
2022/09/30 09:24:23;;;;;;;6.03;4.30;;;13.10;99.90;;;;;;5077510;28;20040;-61
2022/09/30 09:26:52;;;;;;;4.70;3.92;;;13.20;99.90;;;;;;5077067;28;20048;-62
2022/09/30 09:29:43;;;;;;;5.15;4.63;;;13.30;99.90;;;;;;5076469;28;20550;-61
2022/09/30 09:32:16;;;;;;;4.63;3.60;;;13.40;99.90;;;;;;5077448;28;20155;-62
2022/09/30 09:34:43;;;;;;;4.22;3.65;;;13.40;99.90;;;;;;5076867;28;20052;-62
2022/09/30 09:40:35;;;;;;;5.93;3.38;;;13.50;99.90;;;;;;5060626;28;20047;-62
2022/09/30 09:43:12;;;;;;;4.28;3.88;;;13.50;99.90;;;;;;5077042;28;20501;-62
2022/09/30 09:45:55;;;;;;;4.53;3.45;;;13.70;99.90;;;;;;5077363;28;20044;-61
2022/09/30 09:48:21;;;;;;;4.22;3.75;;;13.80;99.90;;;;;;5076642;28;20136;-62
2022/09/30 09:51:02;;;;;;;4.60;3.80;;;13.80;99.90;;;;;;5076415;28;20087;-62
2022/09/30 09:53:56;;;;;;;4.25;3.85;;;13.80;99.90;;;;;;5076207;28;20501;-61
2022/09/30 09:56:27;;;;;;;5.40;4.00;;;13.90;99.90;;;;;;5076435;28;20441;-62
2022/09/30 09:59:13;;;;;;;4.95;4.15;;;13.90;99.90;;;;;;5075482;28;20123;-62
2022/09/30 10:01:40;;;;;;;4.80;4.20;;;14.10;99.90;;;;;;5076297;28;20083;-61
2022/09/30 10:04:17;;;;;;;4.45;3.92;;;14.10;99.90;;;;;;5076263;28;20071;-62
2022/09/30 10:06:46;;;;;;;4.35;3.95;;;14.20;99.90;;;;;;5076266;28;20102;-62
2022/09/30 10:09:27;;;;;;;4.65;4.13;;;14.30;99.90;;;;;;5076118;28;20136;-62
2022/09/30 10:12:05;;;;;;;5.68;4.50;;;14.30;99.90;;;;;;5075747;28;20468;-61
2022/09/30 10:14:47;;;;;;;5.55;4.28;;;14.30;99.90;;;;;;5076193;28;20052;-62
2022/09/30 10:17:24;;;;;;;4.13;3.60;;;14.20;99.90;;;;;;5076577;28;20048;-61
2022/09/30 10:19:59;;;;;;;5.93;4.65;;;14.20;99.90;;;;;;5076848;28;20044;-61
2022/09/30 10:22:30;;;;;;;6.35;5.13;;;14.30;99.90;;;;;;5076651;28;20420;-61
2022/09/30 10:25:13;;;;;;;6.07;4.88;;;14.40;99.90;;;;;;5076465;28;20064;-61
2022/09/30 10:27:53;;;;;;;5.68;5.00;;;14.40;99.90;;;;;;5076099;28;20098;-62
2022/09/30 10:30:41;;;;;;;5.07;4.38;;;14.40;99.90;;;;;;5075941;28;20048;-61
2022/09/30 10:33:19;;;;;;;6.00;5.40;;;14.40;99.90;;;;;;5075632;28;20045;-62
2022/09/30 10:35:52;;;;;;;6.55;5.70;;;14.50;99.90;;;;;;5075693;28;20048;-61
2022/09/30 10:38:18;;;;;;;6.00;5.40;;;14.50;99.90;;;;;;5075447;28;20493;-61
2022/09/30 10:40:49;;;;;;;6.55;5.85;;;14.50;99.90;;;;;;5074545;28;20078;-61
2022/09/30 10:43:23;;;;;;;6.82;6.13;;;14.60;99.90;;;;;;5074437;28;20040;-61
2022/09/30 10:45:50;;;;;;;6.53;5.75;;;14.50;99.90;;;;;;5074989;28;20045;-61
2022/09/30 10:48:21;;;;;;;6.78;6.07;;;14.40;99.90;;;;;;5075517;28;20084;-61
2022/09/30 10:50:55;;;;;;;7.75;6.95;;;14.50;99.90;;;;;;5076247;28;20382;-61
2022/09/30 10:53:28;;;;;;;7.72;6.93;;;14.60;99.90;;;;;;5076195;28;20397;-61
2022/09/30 10:55:55;;;;;;;8.07;7.18;;;14.70;99.90;;;;;;5075429;28;20052;-62
2022/09/30 10:58:41;;;;;;;7.43;6.22;;;14.50;99.90;;;;;;5074381;28;20084;-61
2022/09/30 11:01:27;;;;;;;7.97;6.32;;;14.40;99.90;;;;;;5075506;28;20102;-62
2022/09/30 11:04:04;;;;;;;6.30;5.70;;;14.50;99.90;;;;;;5075802;28;20089;-62
2022/09/30 11:06:32;;;;;;;7.38;6.07;;;14.50;99.90;;;;;;5073968;28;20048;-61
2022/09/30 11:09:33;;;;;;;7.03;6.32;;;14.60;99.90;;;;;;5075079;28;20103;-62
2022/09/30 11:12:10;;;;;;;7.78;6.05;;;14.60;99.90;;;;;;5074968;28;20060;-61
2022/09/30 11:14:52;;;;;;;8.07;5.97;;;14.70;99.90;;;;;;5075855;28;20403;-61
2022/09/30 11:17:30;;;;;;;6.78;6.07;;;14.80;99.90;;;;;;5075543;28;20068;-61
2022/09/30 11:19:58;;;;;;;5.38;4.13;;;14.90;99.90;;;;;;5074960;28;20040;-61
2022/09/30 11:23:10;;;;;;;4.63;3.97;;;15.00;99.90;;;;;;5075582;28;20051;-61
2022/09/30 11:26:13;;;;;;;5.20;4.28;;;15.10;99.90;;;;;;5032427;28;20041;-60
2022/09/30 11:28:46;;;;;;;5.35;4.50;;;15.10;99.90;;;;;;5016160;28;20502;-61
2022/09/30 11:31:15;;;;;;;6.03;5.15;;;15.10;99.90;;;;;;5064726;28;20071;-60
2022/09/30 11:34:10;;;;;;;5.70;4.35;;;15.00;99.90;;;;;;5073356;28;20455;-60
2022/09/30 11:37:01;;;;;;;5.28;4.78;;;14.80;99.90;;;;;;5074546;28;20094;-61
2022/09/30 11:39:47;;;;;;;5.95;5.15;;;14.80;99.90;;;;;;5074438;28;20044;-61
2022/09/30 11:42:27;;;;;;;7.18;5.95;;;14.90;99.90;;;;;;5075011;28;20160;-60
2022/09/30 11:45:12;;;;;;;7.38;6.35;;;15.00;99.90;;;;;;5074369;28;20053;-61
2022/09/30 11:47:56;;;;;;;10.02;7.38;;;15.10;99.90;;;;;;5074651;28;20186;-61
2022/09/30 11:50:31;;;;;;;7.03;6.32;;;15.30;99.90;;;;;;5074204;28;20048;-60
2022/09/30 11:53:10;;;;;;;8.25;6.85;;;15.30;99.90;;;;;;5074322;28;20048;-60
2022/09/30 11:55:56;;;;;;;9.57;8.13;;;15.30;99.90;;;;;;5073404;28;20048;-61
2022/09/30 11:58:27;;;;;;;8.15;6.95;;;15.30;99.90;;;;;;5074688;28;20048;-61
2022/09/30 12:01:07;;;;;;;8.18;7.13;;;15.30;99.90;;;;;;5074643;28;20040;-61
2022/09/30 12:03:43;;;;;;;8.60;7.05;;;15.30;99.90;;;;;;5074453;28;20063;-62
2022/09/30 12:06:23;;;;;;;9.52;8.50;;;15.20;99.90;;;;;;5074285;28;20080;-61
2022/09/30 12:08:58;;;;;;;8.63;7.72;;;15.20;99.90;;;;;;5074046;28;20443;-62
2022/09/30 12:11:45;;;;;;;8.50;7.30;;;15.00;99.90;;;;;;5074180;28;20044;-62
2022/09/30 12:14:39;;;;;;;9.07;7.38;;;15.10;99.90;;;;;;5073764;28;20048;-61
2022/09/30 12:17:19;;;;;;;8.40;7.50;;;15.30;99.90;;;;;;5073937;28;20078;-61
2022/09/30 12:19:47;;;;;;;10.48;7.88;;;15.50;99.90;;;;;;5073901;28;20056;-62
2022/09/30 12:22:29;;;;;;;10.43;8.70;;;15.50;99.90;;;;;;5072004;28;20048;-61
2022/09/30 12:24:55;;;;;;;9.18;8.25;;;15.50;99.90;;;;;;5073792;28;20084;-62
2022/09/30 12:27:32;;;;;;;9.13;8.00;;;15.40;99.90;;;;;;5073573;28;20153;-61
2022/09/30 12:30:19;;;;;;;9.10;7.93;;;15.20;99.90;;;;;;5074097;28;20091;-61
2022/09/30 12:32:50;;;;;;;9.30;7.63;;;15.20;99.90;;;;;;5073678;28;20096;-61
2022/09/30 12:35:31;;;;;;;7.32;6.55;;;15.30;99.90;;;;;;5074074;28;20071;-61
2022/09/30 12:38:21;;;;;;;8.05;7.22;;;15.40;99.90;;;;;;5073887;28;20052;-61
2022/09/30 12:41:01;;;;;;;7.43;6.63;;;15.40;99.90;;;;;;5073235;28;20041;-61
2022/09/30 12:43:50;;;;;;;7.70;6.70;;;15.40;99.90;;;;;;5074141;28;20044;-61
2022/09/30 12:46:47;;;;;;;8.52;6.90;;;15.50;99.90;;;;;;5074088;28;20040;-61
2022/09/30 12:49:18;;;;;;;7.57;6.77;;;15.50;99.90;;;;;;5073398;28;20048;-62
2022/09/30 12:51:49;;;;;;;7.63;6.18;;;15.50;99.90;;;;;;5073354;28;20362;-61
2022/09/30 12:54:27;;;;;;;8.77;5.93;;;15.60;99.90;;;;;;5073391;28;20040;-62
2022/09/30 12:56:59;;;;;;;7.88;6.50;;;15.60;99.90;;;;;;5073295;28;20166;-61
2022/09/30 12:59:36;;;;;;;7.13;6.38;;;15.50;99.90;;;;;;5073236;28;20493;-61
2022/09/30 13:02:03;;;;;;;6.68;5.90;;;15.50;99.90;;;;;;5072818;28;20045;-61
2022/09/30 13:04:37;;;;;;;7.57;5.78;;;15.70;99.90;;;;;;5072331;28;20101;-61
2022/09/30 13:07:10;;;;;;;6.70;6.00;;;15.70;99.90;;;;;;5072695;28;20040;-62
2022/09/30 13:09:55;;;;;;;6.35;5.50;;;15.70;99.90;;;;;;5073017;28;20132;-61
2022/09/30 13:12:25;;;;;;;6.47;5.53;;;15.80;99.90;;;;;;5072978;28;20060;-61
2022/09/30 13:15:22;;;;;;;7.90;6.82;;;15.70;99.90;;;;;;5072957;28;20068;-61
2022/09/30 13:17:48;;;;;;;6.63;5.78;;;15.50;99.90;;;;;;5073113;28;20048;-60
2022/09/30 13:20:55;;;;;;;8.13;6.50;;;15.50;99.90;;;;;;5072960;28;20095;-60
2022/09/30 13:23:39;;;;;;;7.53;6.03;;;15.60;99.90;;;;;;5072957;28;20055;-61
2022/09/30 13:26:26;;;;;;;7.80;7.00;;;15.60;99.90;;;;;;5072859;28;20060;-62
2022/09/30 13:29:18;;;;;;;8.18;7.10;;;15.50;99.90;;;;;;5072952;28;20060;-62